Main page
METAR-TAF:

METAR-TAF

Airports :

Erfurt–Weimar Airport

Erfurt, Germany

latitude: 50-59N, longitude: 010-58E, elevation: 315 m

Current weather observation

The report was made 19 minutes ago, at 07:50 UTC
Wind 11 kt from the South
Temperature 7°C
Humidity 87%
Pressure 1009 hPa
Visibility 10 km or more
Few clouds at a height of 3300 ft

METAR: EDDE 160750Z 18011KT 9999 FEW033 07/05 Q1009 NOSIG

Time: 09:09 (08:09 UTC)

Forecast

The report was made 3 hours and 9 minutes ago, at 05:00 UTC
Forecast valid from 16 at 06 UTC to 17 at 06 UTC
Wind 9 kt from the South
Visibility 10 km or more
no clouds below 1500 m and no cumulonimbus

TAF: EDDE 160500Z 1606/1706 18009KT CAVOK

Weather observations and forecasts of more than 4000 airports (METAR and TAF reports).

The available stations are represented by yellow and red dots on the map.

Hover mouse over dot to see the name of the station.

Then click to see weather observations and forecasts.

To change the map : click on the green buttons with a black cross to zoom in, on the green button with a dash to zoom out, or on the green arrows for adjacent maps.


METAR-TAF: